sensor_id;sensor_type;location;lat;lon;timestamp;P1;durP1;ratioP1;P2;durP2;ratioP2
69369;SDS011;56530;42.640;23.372;2022-07-23T00:01:06;8.48;;;5.50;;
69369;SDS011;56530;42.640;23.372;2022-07-23T00:03:32;10.00;;;6.50;;
69369;SDS011;56530;42.640;23.372;2022-07-23T00:05:57;9.25;;;5.32;;
69369;SDS011;56530;42.640;23.372;2022-07-23T00:08:23;7.32;;;5.38;;
69369;SDS011;56530;42.640;23.372;2022-07-23T00:10:48;6.93;;;5.30;;
69369;SDS011;56530;42.640;23.372;2022-07-23T00:13:13;7.47;;;6.07;;
69369;SDS011;56530;42.640;23.372;2022-07-23T00:15:39;9.80;;;5.70;;
69369;SDS011;56530;42.640;23.372;2022-07-23T00:18:04;7.65;;;4.85;;
69369;SDS011;56530;42.640;23.372;2022-07-23T00:20:30;7.80;;;4.95;;
69369;SDS011;56530;42.640;23.372;2022-07-23T00:22:55;8.32;;;5.50;;
69369;SDS011;56530;42.640;23.372;2022-07-23T00:25:21;6.75;;;5.07;;
69369;SDS011;56530;42.640;23.372;2022-07-23T00:27:47;12.23;;;6.25;;
69369;SDS011;56530;42.640;23.372;2022-07-23T00:30:13;12.25;;;5.95;;
69369;SDS011;56530;42.640;23.372;2022-07-23T00:32:45;8.75;;;5.55;;
69369;SDS011;56530;42.640;23.372;2022-07-23T00:35:12;9.75;;;5.45;;
69369;SDS011;56530;42.640;23.372;2022-07-23T00:37:37;8.25;;;5.20;;
69369;SDS011;56530;42.640;23.372;2022-07-23T00:40:03;7.88;;;5.95;;
69369;SDS011;56530;42.640;23.372;2022-07-23T00:42:30;8.63;;;5.43;;
69369;SDS011;56530;42.640;23.372;2022-07-23T00:44:56;6.40;;;5.22;;
69369;SDS011;56530;42.640;23.372;2022-07-23T00:47:21;6.13;;;5.10;;
69369;SDS011;56530;42.640;23.372;2022-07-23T00:49:47;7.32;;;5.93;;
69369;SDS011;56530;42.640;23.372;2022-07-23T00:52:12;11.35;;;6.10;;
69369;SDS011;56530;42.640;23.372;2022-07-23T00:54:38;8.57;;;5.55;;
69369;SDS011;56530;42.640;23.372;2022-07-23T00:57:03;7.55;;;5.78;;
69369;SDS011;56530;42.640;23.372;2022-07-23T00:59:29;9.82;;;5.47;;
69369;SDS011;56530;42.640;23.372;2022-07-23T01:01:54;8.80;;;5.32;;
69369;SDS011;56530;42.640;23.372;2022-07-23T01:04:20;8.43;;;6.18;;
69369;SDS011;56530;42.640;23.372;2022-07-23T01:06:45;9.18;;;5.63;;
69369;SDS011;56530;42.640;23.372;2022-07-23T01:09:11;8.55;;;5.93;;
69369;SDS011;56530;42.640;23.372;2022-07-23T01:11:37;6.70;;;5.93;;
69369;SDS011;56530;42.640;23.372;2022-07-23T01:16:38;9.50;;;5.22;;
69369;SDS011;56530;42.640;23.372;2022-07-23T01:19:04;8.48;;;5.93;;
69369;SDS011;56530;42.640;23.372;2022-07-23T01:21:32;8.32;;;5.85;;
69369;SDS011;56530;42.640;23.372;2022-07-23T01:23:59;8.68;;;5.43;;
69369;SDS011;56530;42.640;23.372;2022-07-23T01:26:24;9.38;;;5.15;;
69369;SDS011;56530;42.640;23.372;2022-07-23T01:28:50;8.43;;;5.50;;
69369;SDS011;56530;42.640;23.372;2022-07-23T01:31:15;7.68;;;5.03;;
69369;SDS011;56530;42.640;23.372;2022-07-23T01:33:41;11.00;;;5.85;;
69369;SDS011;56530;42.640;23.372;2022-07-23T01:36:06;12.73;;;5.72;;
69369;SDS011;56530;42.640;23.372;2022-07-23T01:38:32;8.95;;;5.28;;
69369;SDS011;56530;42.640;23.372;2022-07-23T01:40:57;8.35;;;6.20;;
69369;SDS011;56530;42.640;23.372;2022-07-23T01:43:23;10.82;;;6.45;;
69369;SDS011;56530;42.640;23.372;2022-07-23T01:45:48;11.27;;;6.80;;
69369;SDS011;56530;42.640;23.372;2022-07-23T01:48:14;10.65;;;5.85;;
69369;SDS011;56530;42.640;23.372;2022-07-23T01:50:40;8.32;;;5.55;;
69369;SDS011;56530;42.640;23.372;2022-07-23T01:53:06;9.13;;;5.45;;
69369;SDS011;56530;42.640;23.372;2022-07-23T01:55:31;13.15;;;5.75;;
69369;SDS011;56530;42.640;23.372;2022-07-23T01:57:56;17.23;;;6.30;;
69369;SDS011;56530;42.640;23.372;2022-07-23T02:00:22;10.00;;;5.60;;
69369;SDS011;56530;42.640;23.372;2022-07-23T02:02:47;8.50;;;6.15;;
69369;SDS011;56530;42.640;23.372;2022-07-23T02:05:13;7.95;;;5.55;;
69369;SDS011;56530;42.640;23.372;2022-07-23T02:07:38;9.15;;;5.70;;
69369;SDS011;56530;42.640;23.372;2022-07-23T02:10:04;7.55;;;5.43;;
69369;SDS011;56530;42.640;23.372;2022-07-23T02:12:29;9.15;;;5.93;;
69369;SDS011;56530;42.640;23.372;2022-07-23T02:14:55;13.77;;;6.40;;
69369;SDS011;56530;42.640;23.372;2022-07-23T02:17:20;9.48;;;5.28;;
69369;SDS011;56530;42.640;23.372;2022-07-23T02:19:46;9.55;;;5.40;;
69369;SDS011;56530;42.640;23.372;2022-07-23T02:22:11;9.48;;;5.32;;
69369;SDS011;56530;42.640;23.372;2022-07-23T02:24:36;9.95;;;4.93;;
69369;SDS011;56530;42.640;23.372;2022-07-23T02:27:02;12.18;;;5.55;;
69369;SDS011;56530;42.640;23.372;2022-07-23T02:29:27;11.68;;;5.55;;
69369;SDS011;56530;42.640;23.372;2022-07-23T02:31:53;8.57;;;5.55;;
69369;SDS011;56530;42.640;23.372;2022-07-23T02:34:18;6.38;;;5.07;;
69369;SDS011;56530;42.640;23.372;2022-07-23T02:36:44;10.07;;;5.63;;
69369;SDS011;56530;42.640;23.372;2022-07-23T02:39:09;10.38;;;5.78;;
69369;SDS011;56530;42.640;23.372;2022-07-23T02:41:35;7.53;;;5.57;;
69369;SDS011;56530;42.640;23.372;2022-07-23T02:44:00;12.05;;;5.75;;
69369;SDS011;56530;42.640;23.372;2022-07-23T02:46:26;7.72;;;5.22;;
69369;SDS011;56530;42.640;23.372;2022-07-23T02:48:51;10.43;;;5.95;;
69369;SDS011;56530;42.640;23.372;2022-07-23T02:51:17;12.85;;;5.55;;
69369;SDS011;56530;42.640;23.372;2022-07-23T02:53:42;9.30;;;6.22;;
69369;SDS011;56530;42.640;23.372;2022-07-23T02:56:08;11.60;;;5.75;;
69369;SDS011;56530;42.640;23.372;2022-07-23T02:58:33;12.95;;;5.57;;
69369;SDS011;56530;42.640;23.372;2022-07-23T03:00:59;8.57;;;5.82;;
69369;SDS011;56530;42.640;23.372;2022-07-23T03:03:24;8.63;;;5.32;;
69369;SDS011;56530;42.640;23.372;2022-07-23T03:05:50;11.93;;;6.25;;
69369;SDS011;56530;42.640;23.372;2022-07-23T03:08:16;13.13;;;5.75;;
69369;SDS011;56530;42.640;23.372;2022-07-23T03:10:41;13.77;;;6.18;;
69369;SDS011;56530;42.640;23.372;2022-07-23T03:13:06;5.85;;;5.18;;
69369;SDS011;56530;42.640;23.372;2022-07-23T03:15:32;7.15;;;5.53;;
69369;SDS011;56530;42.640;23.372;2022-07-23T03:17:57;10.07;;;5.72;;
69369;SDS011;56530;42.640;23.372;2022-07-23T03:20:23;7.07;;;6.05;;
69369;SDS011;56530;42.640;23.372;2022-07-23T03:22:48;6.60;;;5.57;;
69369;SDS011;56530;42.640;23.372;2022-07-23T03:25:14;9.60;;;5.32;;
69369;SDS011;56530;42.640;23.372;2022-07-23T03:27:39;6.60;;;5.50;;
69369;SDS011;56530;42.640;23.372;2022-07-23T03:30:05;15.02;;;6.60;;
69369;SDS011;56530;42.640;23.372;2022-07-23T03:32:31;7.00;;;5.50;;
69369;SDS011;56530;42.640;23.372;2022-07-23T03:34:56;8.73;;;5.00;;
69369;SDS011;56530;42.640;23.372;2022-07-23T03:37:22;9.43;;;5.65;;
69369;SDS011;56530;42.640;23.372;2022-07-23T03:39:47;9.88;;;6.07;;
69369;SDS011;56530;42.640;23.372;2022-07-23T03:42:13;7.78;;;5.78;;
69369;SDS011;56530;42.640;23.372;2022-07-23T03:44:38;6.88;;;5.30;;
69369;SDS011;56530;42.640;23.372;2022-07-23T03:47:04;11.88;;;5.50;;
69369;SDS011;56530;42.640;23.372;2022-07-23T03:49:30;7.45;;;6.13;;
69369;SDS011;56530;42.640;23.372;2022-07-23T03:51:56;10.95;;;5.15;;
69369;SDS011;56530;42.640;23.372;2022-07-23T03:54:22;8.88;;;5.32;;
69369;SDS011;56530;42.640;23.372;2022-07-23T03:56:47;8.38;;;4.85;;
69369;SDS011;56530;42.640;23.372;2022-07-23T03:59:13;8.27;;;6.75;;
69369;SDS011;56530;42.640;23.372;2022-07-23T04:01:38;9.75;;;5.97;;
69369;SDS011;56530;42.640;23.372;2022-07-23T04:04:04;8.95;;;5.78;;
69369;SDS011;56530;42.640;23.372;2022-07-23T04:06:29;11.75;;;6.15;;
69369;SDS011;56530;42.640;23.372;2022-07-23T04:08:55;7.47;;;6.60;;
69369;SDS011;56530;42.640;23.372;2022-07-23T04:11:20;11.63;;;5.68;;
69369;SDS011;56530;42.640;23.372;2022-07-23T04:13:46;8.73;;;6.13;;
69369;SDS011;56530;42.640;23.372;2022-07-23T04:16:11;11.20;;;6.28;;
69369;SDS011;56530;42.640;23.372;2022-07-23T04:18:37;10.20;;;5.85;;
69369;SDS011;56530;42.640;23.372;2022-07-23T04:21:02;7.18;;;5.68;;
69369;SDS011;56530;42.640;23.372;2022-07-23T04:23:28;13.55;;;6.78;;
69369;SDS011;56530;42.640;23.372;2022-07-23T04:25:53;9.90;;;6.10;;
69369;SDS011;56530;42.640;23.372;2022-07-23T04:28:18;13.07;;;6.50;;
69369;SDS011;56530;42.640;23.372;2022-07-23T04:30:44;9.35;;;6.25;;
69369;SDS011;56530;42.640;23.372;2022-07-23T04:33:09;8.70;;;6.63;;
69369;SDS011;56530;42.640;23.372;2022-07-23T04:35:35;12.52;;;6.13;;
69369;SDS011;56530;42.640;23.372;2022-07-23T04:38:01;13.00;;;6.95;;
69369;SDS011;56530;42.640;23.372;2022-07-23T04:40:27;10.85;;;7.35;;
69369;SDS011;56530;42.640;23.372;2022-07-23T04:42:53;11.85;;;7.03;;
69369;SDS011;56530;42.640;23.372;2022-07-23T04:45:18;13.43;;;7.97;;
69369;SDS011;56530;42.640;23.372;2022-07-23T04:47:44;9.73;;;7.30;;
69369;SDS011;56530;42.640;23.372;2022-07-23T04:50:09;9.65;;;6.47;;
69369;SDS011;56530;42.640;23.372;2022-07-23T04:52:35;8.00;;;6.47;;
69369;SDS011;56530;42.640;23.372;2022-07-23T04:55:01;11.73;;;8.20;;
69369;SDS011;56530;42.640;23.372;2022-07-23T04:57:26;11.48;;;7.40;;
69369;SDS011;56530;42.640;23.372;2022-07-23T04:59:52;10.63;;;8.15;;
69369;SDS011;56530;42.640;23.372;2022-07-23T05:02:17;11.02;;;7.80;;
69369;SDS011;56530;42.640;23.372;2022-07-23T05:04:43;17.88;;;8.35;;
69369;SDS011;56530;42.640;23.372;2022-07-23T05:07:08;15.48;;;8.27;;
69369;SDS011;56530;42.640;23.372;2022-07-23T05:09:33;13.10;;;8.63;;
69369;SDS011;56530;42.640;23.372;2022-07-23T05:11:59;15.38;;;7.45;;
69369;SDS011;56530;42.640;23.372;2022-07-23T05:14:25;19.75;;;8.40;;
69369;SDS011;56530;42.640;23.372;2022-07-23T05:16:50;14.02;;;8.52;;
69369;SDS011;56530;42.640;23.372;2022-07-23T05:19:16;14.75;;;8.50;;
69369;SDS011;56530;42.640;23.372;2022-07-23T05:21:41;14.75;;;10.10;;
69369;SDS011;56530;42.640;23.372;2022-07-23T05:24:06;11.95;;;8.48;;
69369;SDS011;56530;42.640;23.372;2022-07-23T05:26:32;17.48;;;9.32;;
69369;SDS011;56530;42.640;23.372;2022-07-23T05:28:57;13.60;;;8.60;;
69369;SDS011;56530;42.640;23.372;2022-07-23T05:31:23;16.40;;;9.25;;
69369;SDS011;56530;42.640;23.372;2022-07-23T05:33:49;15.00;;;8.43;;
69369;SDS011;56530;42.640;23.372;2022-07-23T05:36:14;15.50;;;8.38;;
69369;SDS011;56530;42.640;23.372;2022-07-23T05:38:40;16.73;;;8.55;;
69369;SDS011;56530;42.640;23.372;2022-07-23T05:41:05;11.38;;;7.82;;
69369;SDS011;56530;42.640;23.372;2022-07-23T05:43:31;14.60;;;8.73;;
69369;SDS011;56530;42.640;23.372;2022-07-23T05:45:56;14.57;;;9.32;;
69369;SDS011;56530;42.640;23.372;2022-07-23T05:48:21;13.13;;;8.00;;
69369;SDS011;56530;42.640;23.372;2022-07-23T05:50:47;12.23;;;7.97;;
69369;SDS011;56530;42.640;23.372;2022-07-23T05:53:12;15.35;;;8.90;;
69369;SDS011;56530;42.640;23.372;2022-07-23T05:55:38;16.58;;;10.93;;
69369;SDS011;56530;42.640;23.372;2022-07-23T05:58:03;17.10;;;10.18;;
69369;SDS011;56530;42.640;23.372;2022-07-23T06:00:29;13.02;;;7.75;;
69369;SDS011;56530;42.640;23.372;2022-07-23T06:02:55;15.52;;;7.53;;
69369;SDS011;56530;42.640;23.372;2022-07-23T06:05:20;12.43;;;8.88;;
69369;SDS011;56530;42.640;23.372;2022-07-23T06:07:46;21.40;;;9.40;;
69369;SDS011;56530;42.640;23.372;2022-07-23T06:10:11;12.45;;;8.13;;
69369;SDS011;56530;42.640;23.372;2022-07-23T06:12:37;22.40;;;10.27;;
69369;SDS011;56530;42.640;23.372;2022-07-23T06:15:03;14.88;;;9.82;;
69369;SDS011;56530;42.640;23.372;2022-07-23T06:17:28;16.70;;;8.75;;
69369;SDS011;56530;42.640;23.372;2022-07-23T06:19:54;18.55;;;10.00;;
69369;SDS011;56530;42.640;23.372;2022-07-23T06:22:20;11.68;;;8.45;;
69369;SDS011;56530;42.640;23.372;2022-07-23T06:24:46;13.68;;;8.65;;
69369;SDS011;56530;42.640;23.372;2022-07-23T06:27:11;20.48;;;8.40;;
69369;SDS011;56530;42.640;23.372;2022-07-23T06:29:36;10.55;;;8.50;;
69369;SDS011;56530;42.640;23.372;2022-07-23T06:32:02;14.60;;;7.15;;
69369;SDS011;56530;42.640;23.372;2022-07-23T06:34:28;20.92;;;8.77;;
69369;SDS011;56530;42.640;23.372;2022-07-23T06:36:53;9.70;;;7.60;;
69369;SDS011;56530;42.640;23.372;2022-07-23T06:39:19;11.85;;;7.53;;
69369;SDS011;56530;42.640;23.372;2022-07-23T06:41:44;13.10;;;8.18;;
69369;SDS011;56530;42.640;23.372;2022-07-23T06:44:10;13.45;;;7.97;;
69369;SDS011;56530;42.640;23.372;2022-07-23T06:46:35;11.00;;;8.40;;
69369;SDS011;56530;42.640;23.372;2022-07-23T06:49:00;12.20;;;6.95;;
69369;SDS011;56530;42.640;23.372;2022-07-23T06:51:26;13.45;;;6.78;;
69369;SDS011;56530;42.640;23.372;2022-07-23T06:53:51;12.98;;;7.75;;
69369;SDS011;56530;42.640;23.372;2022-07-23T06:56:17;12.02;;;7.55;;
69369;SDS011;56530;42.640;23.372;2022-07-23T06:58:42;21.35;;;8.95;;
69369;SDS011;56530;42.640;23.372;2022-07-23T07:01:08;11.93;;;6.97;;
69369;SDS011;56530;42.640;23.372;2022-07-23T07:03:33;13.68;;;7.13;;
69369;SDS011;56530;42.640;23.372;2022-07-23T07:05:59;17.20;;;7.93;;
69369;SDS011;56530;42.640;23.372;2022-07-23T07:08:24;10.15;;;8.05;;
69369;SDS011;56530;42.640;23.372;2022-07-23T07:10:49;15.73;;;8.57;;
69369;SDS011;56530;42.640;23.372;2022-07-23T07:13:15;10.93;;;8.35;;
69369;SDS011;56530;42.640;23.372;2022-07-23T07:15:41;15.75;;;7.78;;
69369;SDS011;56530;42.640;23.372;2022-07-23T07:18:06;14.57;;;9.13;;
69369;SDS011;56530;42.640;23.372;2022-07-23T07:20:32;12.98;;;7.32;;
69369;SDS011;56530;42.640;23.372;2022-07-23T07:22:57;18.65;;;8.55;;
69369;SDS011;56530;42.640;23.372;2022-07-23T07:25:23;10.55;;;8.68;;
69369;SDS011;56530;42.640;23.372;2022-07-23T07:27:48;7.97;;;7.18;;
69369;SDS011;56530;42.640;23.372;2022-07-23T07:30:14;14.60;;;7.30;;
69369;SDS011;56530;42.640;23.372;2022-07-23T07:32:39;11.35;;;7.00;;
69369;SDS011;56530;42.640;23.372;2022-07-23T07:35:05;9.13;;;7.18;;
69369;SDS011;56530;42.640;23.372;2022-07-23T07:37:31;13.88;;;7.60;;
69369;SDS011;56530;42.640;23.372;2022-07-23T07:39:57;14.82;;;8.20;;
69369;SDS011;56530;42.640;23.372;2022-07-23T07:42:22;11.85;;;8.18;;
69369;SDS011;56530;42.640;23.372;2022-07-23T07:44:48;9.32;;;7.88;;
69369;SDS011;56530;42.640;23.372;2022-07-23T07:47:13;15.30;;;7.65;;
69369;SDS011;56530;42.640;23.372;2022-07-23T07:49:42;12.45;;;8.35;;
69369;SDS011;56530;42.640;23.372;2022-07-23T07:52:08;11.68;;;7.88;;
69369;SDS011;56530;42.640;23.372;2022-07-23T07:54:33;22.05;;;8.65;;
69369;SDS011;56530;42.640;23.372;2022-07-23T07:56:59;18.70;;;7.97;;
69369;SDS011;56530;42.640;23.372;2022-07-23T07:59:24;14.00;;;7.35;;
69369;SDS011;56530;42.640;23.372;2022-07-23T08:01:50;13.02;;;8.30;;
69369;SDS011;56530;42.640;23.372;2022-07-23T08:04:16;13.30;;;7.30;;
69369;SDS011;56530;42.640;23.372;2022-07-23T08:06:41;13.82;;;7.63;;
69369;SDS011;56530;42.640;23.372;2022-07-23T08:09:07;22.08;;;13.13;;
69369;SDS011;56530;42.640;23.372;2022-07-23T08:11:32;13.63;;;10.05;;
69369;SDS011;56530;42.640;23.372;2022-07-23T08:13:57;16.25;;;8.20;;
69369;SDS011;56530;42.640;23.372;2022-07-23T08:16:23;13.52;;;7.47;;
69369;SDS011;56530;42.640;23.372;2022-07-23T08:18:48;16.58;;;7.68;;
69369;SDS011;56530;42.640;23.372;2022-07-23T08:21:14;14.93;;;7.78;;
69369;SDS011;56530;42.640;23.372;2022-07-23T08:23:39;12.07;;;7.50;;
69369;SDS011;56530;42.640;23.372;2022-07-23T08:26:04;16.35;;;8.45;;
69369;SDS011;56530;42.640;23.372;2022-07-23T08:28:30;9.00;;;7.00;;
69369;SDS011;56530;42.640;23.372;2022-07-23T08:30:58;13.18;;;7.38;;
69369;SDS011;56530;42.640;23.372;2022-07-23T08:33:24;12.30;;;7.90;;
69369;SDS011;56530;42.640;23.372;2022-07-23T08:35:50;18.77;;;10.32;;
69369;SDS011;56530;42.640;23.372;2022-07-23T08:38:18;7.75;;;6.95;;
69369;SDS011;56530;42.640;23.372;2022-07-23T08:40:46;17.73;;;7.43;;
69369;SDS011;56530;42.640;23.372;2022-07-23T08:43:14;10.77;;;6.78;;
69369;SDS011;56530;42.640;23.372;2022-07-23T08:45:44;17.42;;;11.82;;
69369;SDS011;56530;42.640;23.372;2022-07-23T08:48:21;22.27;;;9.65;;
69369;SDS011;56530;42.640;23.372;2022-07-23T08:50:58;18.15;;;7.40;;
69369;SDS011;56530;42.640;23.372;2022-07-23T08:53:25;9.32;;;7.22;;
69369;SDS011;56530;42.640;23.372;2022-07-23T08:55:54;14.07;;;7.25;;
69369;SDS011;56530;42.640;23.372;2022-07-23T08:58:20;10.00;;;7.43;;
69369;SDS011;56530;42.640;23.372;2022-07-23T09:00:46;7.82;;;7.07;;
69369;SDS011;56530;42.640;23.372;2022-07-23T09:03:19;10.68;;;7.13;;
69369;SDS011;56530;42.640;23.372;2022-07-23T09:05:47;17.40;;;8.73;;
69369;SDS011;56530;42.640;23.372;2022-07-23T09:08:15;13.10;;;7.70;;
69369;SDS011;56530;42.640;23.372;2022-07-23T09:10:42;15.27;;;7.53;;
69369;SDS011;56530;42.640;23.372;2022-07-23T09:24:02;15.18;;;7.90;;
69369;SDS011;56530;42.640;23.372;2022-07-23T09:31:50;11.98;;;8.10;;
69369;SDS011;56530;42.640;23.372;2022-07-23T09:34:26;11.82;;;8.15;;
69369;SDS011;56530;42.640;23.372;2022-07-23T09:36:57;14.63;;;7.80;;
69369;SDS011;56530;42.640;23.372;2022-07-23T09:39:30;9.82;;;6.93;;
69369;SDS011;56530;42.640;23.372;2022-07-23T09:41:57;25.00;;;14.85;;
69369;SDS011;56530;42.640;23.372;2022-07-23T09:44:24;15.32;;;8.52;;
69369;SDS011;56530;42.640;23.372;2022-07-23T09:46:50;16.65;;;7.75;;
69369;SDS011;56530;42.640;23.372;2022-07-23T09:49:19;11.27;;;7.88;;
69369;SDS011;56530;42.640;23.372;2022-07-23T09:54:23;11.45;;;7.18;;
69369;SDS011;56530;42.640;23.372;2022-07-23T09:56:59;14.55;;;7.13;;
69369;SDS011;56530;42.640;23.372;2022-07-23T09:59:28;13.20;;;7.50;;
69369;SDS011;56530;42.640;23.372;2022-07-23T10:01:56;13.30;;;7.18;;
69369;SDS011;56530;42.640;23.372;2022-07-23T10:04:24;14.65;;;6.85;;
69369;SDS011;56530;42.640;23.372;2022-07-23T10:06:55;16.38;;;7.47;;
69369;SDS011;56530;42.640;23.372;2022-07-23T10:09:26;11.43;;;6.63;;
69369;SDS011;56530;42.640;23.372;2022-07-23T10:11:57;8.15;;;6.28;;
69369;SDS011;56530;42.640;23.372;2022-07-23T10:14:46;13.38;;;6.40;;
69369;SDS011;56530;42.640;23.372;2022-07-23T10:17:12;13.60;;;6.57;;
69369;SDS011;56530;42.640;23.372;2022-07-23T10:19:38;15.13;;;6.88;;
69369;SDS011;56530;42.640;23.372;2022-07-23T10:24:36;9.60;;;5.82;;
69369;SDS011;56530;42.640;23.372;2022-07-23T10:30:04;9.88;;;6.00;;
69369;SDS011;56530;42.640;23.372;2022-07-23T10:38:19;13.82;;;6.28;;
69369;SDS011;56530;42.640;23.372;2022-07-23T10:41:03;8.80;;;6.30;;
69369;SDS011;56530;42.640;23.372;2022-07-23T10:43:30;11.13;;;7.00;;
69369;SDS011;56530;42.640;23.372;2022-07-23T10:46:12;9.25;;;6.18;;
69369;SDS011;56530;42.640;23.372;2022-07-23T10:54:42;12.38;;;6.35;;
69369;SDS011;56530;42.640;23.372;2022-07-23T10:57:09;16.42;;;6.40;;
69369;SDS011;56530;42.640;23.372;2022-07-23T11:02:32;15.27;;;6.15;;
69369;SDS011;56530;42.640;23.372;2022-07-23T11:05:02;17.25;;;6.10;;
69369;SDS011;56530;42.640;23.372;2022-07-23T11:07:30;13.48;;;6.15;;
69369;SDS011;56530;42.640;23.372;2022-07-23T11:09:55;13.90;;;7.22;;
69369;SDS011;56530;42.640;23.372;2022-07-23T11:17:32;9.18;;;5.57;;
69369;SDS011;56530;42.640;23.372;2022-07-23T11:22:37;11.18;;;5.85;;
69369;SDS011;56530;42.640;23.372;2022-07-23T11:25:03;17.23;;;6.20;;
69369;SDS011;56530;42.640;23.372;2022-07-23T11:27:45;16.75;;;5.97;;
69369;SDS011;56530;42.640;23.372;2022-07-23T11:30:36;17.58;;;5.97;;
69369;SDS011;56530;42.640;23.372;2022-07-23T11:35:32;17.65;;;6.47;;
69369;SDS011;56530;42.640;23.372;2022-07-23T11:38:05;15.40;;;6.70;;
69369;SDS011;56530;42.640;23.372;2022-07-23T11:40:32;13.30;;;5.97;;
69369;SDS011;56530;42.640;23.372;2022-07-23T11:43:02;13.75;;;5.63;;
69369;SDS011;56530;42.640;23.372;2022-07-23T11:45:36;16.42;;;5.95;;
69369;SDS011;56530;42.640;23.372;2022-07-23T11:48:05;13.10;;;6.22;;
69369;SDS011;56530;42.640;23.372;2022-07-23T11:50:31;28.58;;;6.57;;
69369;SDS011;56530;42.640;23.372;2022-07-23T11:52:57;14.57;;;5.43;;
69369;SDS011;56530;42.640;23.372;2022-07-23T11:55:23;14.05;;;5.55;;
69369;SDS011;56530;42.640;23.372;2022-07-23T11:57:50;15.23;;;6.43;;
69369;SDS011;56530;42.640;23.372;2022-07-23T12:00:19;14.20;;;5.85;;
69369;SDS011;56530;42.640;23.372;2022-07-23T12:02:51;16.58;;;6.07;;
69369;SDS011;56530;42.640;23.372;2022-07-23T12:05:22;20.42;;;6.53;;
69369;SDS011;56530;42.640;23.372;2022-07-23T12:07:50;20.30;;;6.90;;
69369;SDS011;56530;42.640;23.372;2022-07-23T12:15:14;16.40;;;5.78;;
69369;SDS011;56530;42.640;23.372;2022-07-23T12:17:42;14.32;;;6.13;;
69369;SDS011;56530;42.640;23.372;2022-07-23T12:20:12;14.70;;;6.20;;
69369;SDS011;56530;42.640;23.372;2022-07-23T12:22:49;12.13;;;6.18;;
69369;SDS011;56530;42.640;23.372;2022-07-23T12:25:18;14.98;;;6.05;;
69369;SDS011;56530;42.640;23.372;2022-07-23T12:27:44;16.30;;;6.65;;
69369;SDS011;56530;42.640;23.372;2022-07-23T12:32:47;18.38;;;5.78;;
69369;SDS011;56530;42.640;23.372;2022-07-23T12:35:14;11.70;;;5.70;;
69369;SDS011;56530;42.640;23.372;2022-07-23T12:37:41;17.75;;;6.60;;
69369;SDS011;56530;42.640;23.372;2022-07-23T12:43:11;13.18;;;5.57;;
69369;SDS011;56530;42.640;23.372;2022-07-23T12:46:02;21.60;;;6.82;;
69369;SDS011;56530;42.640;23.372;2022-07-23T12:48:30;16.88;;;6.15;;
69369;SDS011;56530;42.640;23.372;2022-07-23T12:51:00;12.82;;;6.53;;
69369;SDS011;56530;42.640;23.372;2022-07-23T12:53:31;15.13;;;5.90;;
69369;SDS011;56530;42.640;23.372;2022-07-23T13:01:10;18.58;;;7.35;;
69369;SDS011;56530;42.640;23.372;2022-07-23T13:04:03;15.80;;;6.03;;
69369;SDS011;56530;42.640;23.372;2022-07-23T13:07:15;20.23;;;5.97;;
69369;SDS011;56530;42.640;23.372;2022-07-23T13:09:27;12.00;;;5.93;;
69369;SDS011;56530;42.640;23.372;2022-07-23T13:11:54;16.55;;;5.97;;
69369;SDS011;56530;42.640;23.372;2022-07-23T13:14:29;18.95;;;7.97;;
69369;SDS011;56530;42.640;23.372;2022-07-23T13:16:54;11.18;;;6.50;;
69369;SDS011;56530;42.640;23.372;2022-07-23T13:19:20;16.83;;;5.80;;
69369;SDS011;56530;42.640;23.372;2022-07-23T13:21:48;21.85;;;6.32;;
69369;SDS011;56530;42.640;23.372;2022-07-23T13:24:14;16.13;;;6.15;;
69369;SDS011;56530;42.640;23.372;2022-07-23T13:26:40;15.43;;;5.32;;
69369;SDS011;56530;42.640;23.372;2022-07-23T13:29:06;14.40;;;6.10;;
69369;SDS011;56530;42.640;23.372;2022-07-23T13:31:32;20.65;;;6.35;;
69369;SDS011;56530;42.640;23.372;2022-07-23T13:33:58;20.67;;;6.57;;
69369;SDS011;56530;42.640;23.372;2022-07-23T13:36:23;13.70;;;6.22;;
69369;SDS011;56530;42.640;23.372;2022-07-23T13:38:49;19.17;;;6.18;;
69369;SDS011;56530;42.640;23.372;2022-07-23T13:41:16;21.75;;;5.03;;
69369;SDS011;56530;42.640;23.372;2022-07-23T13:43:42;13.43;;;6.13;;
69369;SDS011;56530;42.640;23.372;2022-07-23T13:46:08;12.43;;;5.88;;
69369;SDS011;56530;42.640;23.372;2022-07-23T13:48:33;19.08;;;7.20;;
69369;SDS011;56530;42.640;23.372;2022-07-23T13:50:58;16.73;;;6.80;;
69369;SDS011;56530;42.640;23.372;2022-07-23T13:53:24;20.35;;;6.10;;
69369;SDS011;56530;42.640;23.372;2022-07-23T13:55:52;17.80;;;5.75;;
69369;SDS011;56530;42.640;23.372;2022-07-23T13:58:18;11.82;;;6.07;;
69369;SDS011;56530;42.640;23.372;2022-07-23T14:00:46;18.40;;;5.80;;
69369;SDS011;56530;42.640;23.372;2022-07-23T14:03:14;17.42;;;6.20;;
69369;SDS011;56530;42.640;23.372;2022-07-23T14:05:40;22.40;;;6.28;;
69369;SDS011;56530;42.640;23.372;2022-07-23T14:08:06;29.80;;;6.65;;
69369;SDS011;56530;42.640;23.372;2022-07-23T14:10:32;15.13;;;5.55;;
69369;SDS011;56530;42.640;23.372;2022-07-23T14:12:57;18.42;;;6.57;;
69369;SDS011;56530;42.640;23.372;2022-07-23T14:15:24;18.08;;;7.20;;
69369;SDS011;56530;42.640;23.372;2022-07-23T14:17:52;19.70;;;6.50;;
69369;SDS011;56530;42.640;23.372;2022-07-23T14:20:18;19.70;;;7.13;;
69369;SDS011;56530;42.640;23.372;2022-07-23T14:22:44;14.55;;;5.50;;
69369;SDS011;56530;42.640;23.372;2022-07-23T14:25:09;15.65;;;5.95;;
69369;SDS011;56530;42.640;23.372;2022-07-23T14:27:36;15.90;;;7.07;;
69369;SDS011;56530;42.640;23.372;2022-07-23T14:30:02;15.85;;;5.95;;
69369;SDS011;56530;42.640;23.372;2022-07-23T14:32:29;20.45;;;6.78;;
69369;SDS011;56530;42.640;23.372;2022-07-23T14:34:55;13.93;;;5.50;;
69369;SDS011;56530;42.640;23.372;2022-07-23T14:37:20;23.08;;;7.32;;
69369;SDS011;56530;42.640;23.372;2022-07-23T14:39:46;14.60;;;7.13;;
69369;SDS011;56530;42.640;23.372;2022-07-23T14:42:12;14.23;;;5.30;;
69369;SDS011;56530;42.640;23.372;2022-07-23T14:44:38;13.82;;;6.00;;
69369;SDS011;56530;42.640;23.372;2022-07-23T14:47:04;15.35;;;6.90;;
69369;SDS011;56530;42.640;23.372;2022-07-23T14:49:30;16.80;;;6.65;;
69369;SDS011;56530;42.640;23.372;2022-07-23T14:51:56;11.85;;;5.60;;
69369;SDS011;56530;42.640;23.372;2022-07-23T14:54:22;18.95;;;6.95;;
69369;SDS011;56530;42.640;23.372;2022-07-23T14:56:51;16.40;;;6.20;;
69369;SDS011;56530;42.640;23.372;2022-07-23T14:59:16;16.83;;;5.90;;
69369;SDS011;56530;42.640;23.372;2022-07-23T15:01:42;13.05;;;5.53;;
69369;SDS011;56530;42.640;23.372;2022-07-23T15:04:07;15.02;;;5.97;;
69369;SDS011;56530;42.640;23.372;2022-07-23T15:06:33;15.30;;;5.95;;
69369;SDS011;56530;42.640;23.372;2022-07-23T15:08:58;12.20;;;5.80;;
69369;SDS011;56530;42.640;23.372;2022-07-23T15:11:25;17.88;;;6.60;;
69369;SDS011;56530;42.640;23.372;2022-07-23T15:13:51;12.45;;;6.85;;
69369;SDS011;56530;42.640;23.372;2022-07-23T15:16:17;11.02;;;6.82;;
69369;SDS011;56530;42.640;23.372;2022-07-23T15:18:42;12.65;;;6.68;;
69369;SDS011;56530;42.640;23.372;2022-07-23T15:21:07;13.75;;;6.18;;
69369;SDS011;56530;42.640;23.372;2022-07-23T15:23:33;15.05;;;7.50;;
69369;SDS011;56530;42.640;23.372;2022-07-23T15:26:00;14.45;;;6.80;;
69369;SDS011;56530;42.640;23.372;2022-07-23T15:28:25;12.95;;;6.55;;